Terminal Aerodrome Forecast
Issued by NWS

Home | Current Version | Previous Version | Text Only | Print | Product List | Glossary On
Versions: 1 2 3 4 5 6 7 8 9 10 11 12 13 14 15 16
000
FTUS44 KBMX 231139
TAFANB
TAF
KANB 231139Z 2312/2412 04006KT P6SM SCT035
     FM231600 10011G18KT P6SM BKN050
     FM240000 07007KT P6SM BKN050
     FM240900 07010KT P6SM BKN025=

USA.gov is the U.S. government's official web portal to all federal, state and local government web resources and services.